createdAt,value
2023-08-25T00:00:18.113Z,31.32
2023-08-25T00:02:44.581Z,31.32
2023-08-25T00:05:11.045Z,31.35
2023-08-25T00:07:37.592Z,31.27
2023-08-25T00:10:04.052Z,31.27
2023-08-25T00:12:30.497Z,31.11
2023-08-25T00:14:56.930Z,31.09
2023-08-25T00:17:23.345Z,30.88
2023-08-25T00:19:49.788Z,30.72
2023-08-25T00:22:16.212Z,30.76
2023-08-25T00:24:42.690Z,30.62
2023-08-25T00:27:09.130Z,30.67
2023-08-25T00:29:35.583Z,30.69
2023-08-25T00:32:02.033Z,30.53
2023-08-25T00:34:28.479Z,30.55
2023-08-25T00:36:54.904Z,30.43
2023-08-25T00:39:21.327Z,30.55
2023-08-25T00:41:47.797Z,30.53
2023-08-25T00:44:14.262Z,30.40
2023-08-25T00:46:40.757Z,30.03
2023-08-25T00:49:07.191Z,30.13
2023-08-25T00:51:33.623Z,30.09
2023-08-25T00:54:00.060Z,30.03
2023-08-25T00:56:26.496Z,29.82
2023-08-25T00:58:52.908Z,29.87
2023-08-25T01:01:19.427Z,29.99
2023-08-25T01:03:45.997Z,30.00
2023-08-25T01:06:12.418Z,30.16
2023-08-25T01:08:38.862Z,30.30
2023-08-25T01:11:05.379Z,30.38
2023-08-25T01:13:31.938Z,30.53
2023-08-25T01:15:58.373Z,30.45
2023-08-25T01:18:24.869Z,30.49
2023-08-25T01:20:51.300Z,30.09
2023-08-25T01:23:17.732Z,30.21
2023-08-25T01:25:44.159Z,30.01
2023-08-25T01:28:10.632Z,29.98
2023-08-25T01:30:37.131Z,29.81
2023-08-25T01:33:03.590Z,29.87
2023-08-25T01:35:30.049Z,29.78
2023-08-25T01:37:56.468Z,29.56
2023-08-25T01:40:22.885Z,29.56
2023-08-25T01:42:49.320Z,29.33
2023-08-25T01:45:15.762Z,29.56
2023-08-25T01:47:42.226Z,29.42
2023-08-25T01:50:08.708Z,29.41
2023-08-25T01:52:35.170Z,29.56
2023-08-25T01:55:01.622Z,29.59
2023-08-25T01:57:28.037Z,29.60
2023-08-25T01:59:54.485Z,29.63
2023-08-25T02:02:20.959Z,29.76
2023-08-25T02:04:47.397Z,29.85
2023-08-25T02:07:13.843Z,29.75
2023-08-25T02:09:40.257Z,29.81
2023-08-25T02:12:06.705Z,30.00
2023-08-25T02:14:33.127Z,30.03
2023-08-25T02:16:59.578Z,30.20
2023-08-25T02:19:25.999Z,30.08
2023-08-25T02:21:52.491Z,30.10
2023-08-25T02:24:18.939Z,30.17
2023-08-25T02:26:45.374Z,30.14
2023-08-25T02:29:11.828Z,30.02
2023-08-25T02:31:38.310Z,29.94
2023-08-25T02:34:04.775Z,30.08
2023-08-25T02:36:31.246Z,29.99
2023-08-25T02:38:57.679Z,29.79
2023-08-25T02:41:24.115Z,29.79
2023-08-25T02:43:50.552Z,29.74
2023-08-25T02:46:17.034Z,29.55
2023-08-25T02:48:43.508Z,29.57
2023-08-25T02:51:09.965Z,29.47
2023-08-25T02:53:36.385Z,29.39
2023-08-25T02:56:02.829Z,29.33
2023-08-25T02:58:29.289Z,29.25
2023-08-25T03:00:55.696Z,29.28
2023-08-25T03:03:22.198Z,29.37
2023-08-25T03:05:48.686Z,29.44
2023-08-25T03:08:15.097Z,29.58
2023-08-25T03:10:41.553Z,29.74
2023-08-25T03:13:09.059Z,29.66
2023-08-25T03:15:35.600Z,29.56
2023-08-25T03:18:02.097Z,29.47
2023-08-25T03:20:28.537Z,29.51
2023-08-25T03:22:55.000Z,29.58
2023-08-25T03:25:21.421Z,29.67
2023-08-25T03:27:47.912Z,29.61
2023-08-25T03:30:14.358Z,29.39
2023-08-25T03:32:40.845Z,29.32
2023-08-25T03:35:07.385Z,29.20
2023-08-25T03:37:33.821Z,29.20
2023-08-25T03:40:00.278Z,29.06
2023-08-25T03:42:26.728Z,28.99
2023-08-25T03:44:53.183Z,29.05
2023-08-25T03:47:19.588Z,29.03
2023-08-25T03:49:46.089Z,29.13
2023-08-25T03:52:12.524Z,29.23
2023-08-25T03:54:39.022Z,29.32
2023-08-25T03:57:05.480Z,29.41
2023-08-25T03:59:31.909Z,29.55
2023-08-25T04:01:58.344Z,29.36
2023-08-25T04:04:24.778Z,29.46
2023-08-25T04:06:51.232Z,29.61
2023-08-25T04:09:17.679Z,29.46
2023-08-25T04:11:44.113Z,28.93
2023-08-25T04:14:10.554Z,29.00
2023-08-25T04:16:37.024Z,29.12
2023-08-25T04:19:03.552Z,29.05
2023-08-25T04:21:30.006Z,29.09
2023-08-25T04:23:56.472Z,29.11
2023-08-25T04:26:22.896Z,29.10
2023-08-25T04:28:49.332Z,29.12
2023-08-25T04:31:15.786Z,29.06
2023-08-25T04:33:43.135Z,29.12
2023-08-25T04:36:09.714Z,29.06
2023-08-25T04:38:36.200Z,29.04
2023-08-25T04:41:02.634Z,29.05
2023-08-25T04:43:29.109Z,29.10
2023-08-25T04:45:55.556Z,29.14
2023-08-25T04:48:21.991Z,29.08
2023-08-25T04:50:48.433Z,29.11
2023-08-25T04:53:14.850Z,29.12
2023-08-25T04:55:41.290Z,29.06
2023-08-25T04:58:07.701Z,29.06
2023-08-25T05:00:34.209Z,29.10
2023-08-25T05:03:00.780Z,28.81
2023-08-25T05:05:27.282Z,28.39
2023-08-25T05:07:53.869Z,28.63
2023-08-25T05:10:20.527Z,28.15
2023-08-25T05:12:46.956Z,28.46
2023-08-25T05:15:13.373Z,28.72
2023-08-25T05:17:39.819Z,28.51
2023-08-25T05:20:06.239Z,28.66
2023-08-25T05:22:32.716Z,28.82
2023-08-25T05:25:00.305Z,29.02
2023-08-25T05:27:26.739Z,29.06
2023-08-25T05:29:53.157Z,29.12
2023-08-25T05:32:19.645Z,28.74
2023-08-25T05:34:46.066Z,27.53
2023-08-25T05:37:12.546Z,27.07
2023-08-25T05:39:38.995Z,26.33
2023-08-25T05:42:05.421Z,25.77
2023-08-25T05:44:31.863Z,25.85
2023-08-25T05:46:58.310Z,26.06
2023-08-25T05:49:24.783Z,26.28
2023-08-25T05:51:51.204Z,26.50
2023-08-25T05:54:17.635Z,26.19
2023-08-25T05:56:44.124Z,26.36
2023-08-25T05:59:10.558Z,26.63
2023-08-25T06:01:37.095Z,26.78
2023-08-25T06:04:03.620Z,26.90
2023-08-25T06:06:30.070Z,27.29
2023-08-25T06:08:56.561Z,27.31
2023-08-25T06:11:23.001Z,27.76
2023-08-25T06:13:49.424Z,28.04
2023-08-25T06:16:15.894Z,28.32
2023-08-25T06:18:42.387Z,28.22
2023-08-25T06:21:08.830Z,28.03
2023-08-25T06:23:35.306Z,28.50
2023-08-25T06:26:01.739Z,28.78
2023-08-25T06:28:28.159Z,28.78
2023-08-25T06:30:54.620Z,28.25
2023-08-25T06:33:21.043Z,27.98
2023-08-25T06:35:47.462Z,28.29
2023-08-25T06:38:13.918Z,27.95
2023-08-25T06:40:40.421Z,27.49
2023-08-25T06:43:06.925Z,27.67
2023-08-25T06:45:33.392Z,27.10
2023-08-25T06:47:59.901Z,27.75
2023-08-25T06:50:26.422Z,27.53
2023-08-25T06:52:52.852Z,27.41
2023-08-25T06:55:19.316Z,27.56
2023-08-25T06:57:45.799Z,27.27
2023-08-25T07:00:12.228Z,27.18
2023-08-25T07:02:38.652Z,27.26
2023-08-25T07:05:05.103Z,26.97
2023-08-25T07:07:31.543Z,27.07
2023-08-25T07:09:57.992Z,26.96
2023-08-25T07:12:24.427Z,27.60
2023-08-25T07:14:50.859Z,27.59
2023-08-25T07:17:17.311Z,27.84
2023-08-25T07:19:43.747Z,27.91
2023-08-25T07:22:10.185Z,28.13
2023-08-25T07:24:36.655Z,27.45
2023-08-25T07:27:03.077Z,27.12
2023-08-25T07:29:29.512Z,27.47
2023-08-25T07:31:55.944Z,28.26
2023-08-25T07:34:22.363Z,28.24
2023-08-25T07:36:48.805Z,27.96
2023-08-25T07:39:15.260Z,28.42
2023-08-25T07:41:41.699Z,29.05
2023-08-25T07:44:08.139Z,29.26
2023-08-25T07:46:34.638Z,29.42
2023-08-25T07:49:01.096Z,29.02
2023-08-25T07:51:39.648Z,28.07
2023-08-25T07:54:07.316Z,28.25
2023-08-25T07:56:33.749Z,28.64
2023-08-25T07:59:00.237Z,28.73
2023-08-25T08:01:26.708Z,28.90
2023-08-25T08:03:53.222Z,28.94
2023-08-25T08:06:19.688Z,28.66
2023-08-25T08:08:46.168Z,28.36
2023-08-25T08:11:12.608Z,28.07
2023-08-25T08:13:39.112Z,27.97
2023-08-25T08:16:05.537Z,27.86
2023-08-25T08:18:32.005Z,28.02
2023-08-25T08:20:58.425Z,28.12
2023-08-25T08:23:24.844Z,27.83
2023-08-25T08:25:51.300Z,27.92
2023-08-25T08:28:17.724Z,27.69
2023-08-25T08:30:45.366Z,27.08
2023-08-25T08:33:12.949Z,27.14
2023-08-25T08:35:39.385Z,27.20
2023-08-25T08:38:05.831Z,27.13
2023-08-25T08:40:32.276Z,27.40
2023-08-25T08:42:58.759Z,27.94
2023-08-25T08:45:25.199Z,27.84
2023-08-25T08:47:51.913Z,27.53
2023-08-25T08:50:18.579Z,27.68
2023-08-25T08:52:44.985Z,28.26
2023-08-25T08:55:11.441Z,28.50
2023-08-25T08:57:37.881Z,28.28
2023-08-25T09:00:04.379Z,28.01
2023-08-25T09:02:30.845Z,28.13
2023-08-25T09:04:57.364Z,28.49
2023-08-25T09:07:25.941Z,28.49
2023-08-25T09:09:52.393Z,28.08
2023-08-25T09:12:18.844Z,28.34
2023-08-25T09:14:45.344Z,28.54
2023-08-25T09:17:11.802Z,27.45
2023-08-25T09:19:38.249Z,27.15
2023-08-25T09:22:04.690Z,26.68
2023-08-25T09:24:31.125Z,26.49
2023-08-25T09:26:57.544Z,26.84
2023-08-25T09:29:24.001Z,27.31
2023-08-25T09:31:50.430Z,26.96
2023-08-25T09:34:16.925Z,27.40
2023-08-25T09:36:43.341Z,28.04
2023-08-25T09:39:09.787Z,28.27
2023-08-25T09:41:36.329Z,28.57
2023-08-25T09:44:02.919Z,27.91
2023-08-25T09:46:29.363Z,27.75
2023-08-25T09:48:55.858Z,27.99
2023-08-25T09:51:22.327Z,28.55
2023-08-25T09:53:48.781Z,28.48
2023-08-25T09:56:18.212Z,28.22
2023-08-25T09:58:46.160Z,28.43
2023-08-25T10:01:12.628Z,28.62
2023-08-25T10:03:39.123Z,28.98
2023-08-25T10:06:05.564Z,28.90
2023-08-25T10:08:32.077Z,29.08
2023-08-25T10:10:58.521Z,29.12
2023-08-25T10:13:24.970Z,29.21
2023-08-25T10:15:51.426Z,28.97
2023-08-25T10:18:18.006Z,29.10
2023-08-25T10:20:44.553Z,29.34
2023-08-25T10:23:11.010Z,29.36
2023-08-25T10:25:37.439Z,29.33
2023-08-25T10:28:03.874Z,29.61
2023-08-25T10:30:30.307Z,29.82
2023-08-25T10:32:56.790Z,30.30
2023-08-25T10:35:23.274Z,30.60
2023-08-25T10:37:49.726Z,30.70
2023-08-25T10:40:16.193Z,30.66
2023-08-25T10:42:42.613Z,30.78
2023-08-25T10:45:09.076Z,30.74
2023-08-25T10:47:35.602Z,30.93
2023-08-25T10:50:02.198Z,31.11
2023-08-25T10:52:28.615Z,31.38
2023-08-25T10:54:55.074Z,31.10
2023-08-25T10:57:21.570Z,31.27
2023-08-25T10:59:49.374Z,31.38
2023-08-25T11:02:15.815Z,31.15
2023-08-25T11:04:42.407Z,31.26
2023-08-25T11:07:08.950Z,31.00
2023-08-25T11:09:35.693Z,30.67
2023-08-25T11:12:02.145Z,30.56
2023-08-25T11:14:28.629Z,30.89
2023-08-25T11:16:55.066Z,31.22
2023-08-25T11:19:21.513Z,30.59
2023-08-25T11:21:49.598Z,30.77
2023-08-25T11:24:17.313Z,30.21
2023-08-25T11:26:43.788Z,30.63
2023-08-25T11:29:10.285Z,30.24
2023-08-25T11:31:36.724Z,30.33
2023-08-25T11:34:03.177Z,30.24
2023-08-25T11:36:29.614Z,30.07
2023-08-25T11:38:56.046Z,29.38
2023-08-25T11:41:22.464Z,29.05
2023-08-25T11:43:48.909Z,28.90
2023-08-25T11:46:15.396Z,28.31
2023-08-25T11:48:41.965Z,28.09
2023-08-25T11:51:08.407Z,28.39
2023-08-25T11:53:34.843Z,28.58
2023-08-25T11:56:01.453Z,28.52
2023-08-25T11:58:27.911Z,28.66
2023-08-25T12:00:54.429Z,28.29
2023-08-25T12:03:20.966Z,26.77
2023-08-25T12:05:47.445Z,26.45
2023-08-25T12:08:13.856Z,27.09
2023-08-25T12:10:40.505Z,27.19
2023-08-25T12:13:07.125Z,26.82
2023-08-25T12:15:33.606Z,27.07
2023-08-25T12:18:00.183Z,27.41
2023-08-25T12:20:26.754Z,27.98
2023-08-25T12:22:53.180Z,27.89
2023-08-25T12:25:19.607Z,27.42
2023-08-25T12:27:46.033Z,27.72
2023-08-25T12:30:12.491Z,28.04
2023-08-25T12:32:39.037Z,27.86
2023-08-25T12:35:05.492Z,28.18
2023-08-25T12:37:31.902Z,28.25
2023-08-25T12:39:58.299Z,28.17
2023-08-25T12:42:24.726Z,28.08
2023-08-25T12:44:51.206Z,28.62
2023-08-25T12:47:17.664Z,29.17
2023-08-25T12:49:44.078Z,29.11
2023-08-25T12:52:10.554Z,29.56
2023-08-25T12:54:36.996Z,29.17
2023-08-25T12:57:03.431Z,29.49
2023-08-25T12:59:29.900Z,29.30
2023-08-25T13:01:56.323Z,29.52
2023-08-25T13:04:22.757Z,29.91
2023-08-25T13:06:49.170Z,30.53
2023-08-25T13:09:15.657Z,30.76
2023-08-25T13:11:42.151Z,30.70
2023-08-25T13:14:08.611Z,31.02
2023-08-25T13:16:35.067Z,31.05
2023-08-25T13:19:01.513Z,31.00
2023-08-25T13:21:27.941Z,31.48
2023-08-25T13:24:07.913Z,31.05
2023-08-25T13:26:35.928Z,31.48
2023-08-25T13:29:02.384Z,31.92
2023-08-25T13:31:29.205Z,32.24
2023-08-25T13:33:56.189Z,32.16
2023-08-25T13:36:23.299Z,32.12
2023-08-25T13:38:49.789Z,31.61
2023-08-25T13:41:16.201Z,31.54
2023-08-25T13:43:42.673Z,31.85
2023-08-25T13:46:09.152Z,32.32
2023-08-25T13:48:35.612Z,32.56
2023-08-25T13:51:02.049Z,32.00
2023-08-25T13:53:28.477Z,32.09
2023-08-25T13:55:55.380Z,32.19
2023-08-25T13:58:22.290Z,32.32
2023-08-25T14:00:48.707Z,31.97
2023-08-25T14:03:15.292Z,32.04
2023-08-25T14:05:41.846Z,32.83
2023-08-25T14:08:08.313Z,33.48
2023-08-25T14:10:34.747Z,32.99
2023-08-25T14:13:01.191Z,33.34
2023-08-25T14:15:27.617Z,32.94
2023-08-25T14:17:54.283Z,32.74
2023-08-25T14:20:21.033Z,32.69
2023-08-25T14:22:47.584Z,33.23
2023-08-25T14:25:13.999Z,32.48
2023-08-25T14:27:40.421Z,31.27
2023-08-25T14:30:06.851Z,32.49
2023-08-25T14:32:33.281Z,32.43
2023-08-25T14:34:59.730Z,32.14
2023-08-25T14:37:26.145Z,32.11
2023-08-25T14:39:52.572Z,32.61
2023-08-25T14:42:19.017Z,32.28
2023-08-25T14:44:45.440Z,32.44
2023-08-25T14:47:11.880Z,32.02
2023-08-25T14:49:38.397Z,31.88
2023-08-25T14:52:04.963Z,32.01
2023-08-25T14:54:31.395Z,31.14
2023-08-25T14:56:57.846Z,31.23
2023-08-25T14:59:26.567Z,31.50
2023-08-25T15:01:54.110Z,32.35
2023-08-25T15:04:20.542Z,32.94
2023-08-25T15:06:46.986Z,32.78
2023-08-25T15:09:13.405Z,32.26
2023-08-25T15:11:39.845Z,32.60
2023-08-25T15:14:06.276Z,33.08
2023-08-25T15:16:32.706Z,33.83
2023-08-25T15:18:59.151Z,33.81
2023-08-25T15:21:25.618Z,33.99
2023-08-25T15:23:52.044Z,34.34
2023-08-25T15:26:18.458Z,34.57
2023-08-25T15:28:44.980Z,33.79
2023-08-25T15:31:11.571Z,34.14
2023-08-25T15:33:38.132Z,34.72
2023-08-25T15:36:04.569Z,35.41
2023-08-25T15:38:31.003Z,35.28
2023-08-25T15:40:57.436Z,35.48
2023-08-25T15:43:23.854Z,35.84
2023-08-25T15:45:50.315Z,35.46
2023-08-25T15:48:16.759Z,35.70
2023-08-25T15:50:43.185Z,35.18
2023-08-25T15:53:09.637Z,35.08
2023-08-25T15:55:36.088Z,34.84
2023-08-25T15:58:02.517Z,34.63
2023-08-25T16:00:28.936Z,34.28
2023-08-25T16:02:55.618Z,34.08
2023-08-25T16:05:22.351Z,33.80
2023-08-25T16:07:48.822Z,33.21
2023-08-25T16:10:15.363Z,33.12
2023-08-25T16:12:41.850Z,33.00
2023-08-25T16:15:08.277Z,32.93
2023-08-25T16:17:34.719Z,32.54
2023-08-25T16:20:01.293Z,31.86
2023-08-25T16:22:27.744Z,31.80
2023-08-25T16:24:54.817Z,31.57
2023-08-25T16:27:21.269Z,31.32
2023-08-25T16:29:47.742Z,30.76
2023-08-25T16:32:14.153Z,31.20
2023-08-25T16:34:40.624Z,31.43
2023-08-25T16:37:07.063Z,31.32
2023-08-25T16:39:33.509Z,31.42
2023-08-25T16:41:59.965Z,31.56
2023-08-25T16:44:26.398Z,30.86
2023-08-25T16:46:52.872Z,31.23
2023-08-25T16:49:19.396Z,31.27
2023-08-25T16:51:45.841Z,30.79
2023-08-25T16:54:12.274Z,30.71
2023-08-25T16:56:38.832Z,31.01
2023-08-25T16:59:05.277Z,31.19
2023-08-25T17:01:31.750Z,30.40
2023-08-25T17:03:58.398Z,30.30
2023-08-25T17:06:24.916Z,30.45
2023-08-25T17:08:51.375Z,30.64
2023-08-25T17:11:17.854Z,30.50
2023-08-25T17:13:44.274Z,30.88
2023-08-25T17:16:10.789Z,31.10
2023-08-25T17:18:37.348Z,31.27
2023-08-25T17:21:03.789Z,31.30
2023-08-25T17:23:30.257Z,31.20
2023-08-25T17:25:56.704Z,31.22
2023-08-25T17:28:23.141Z,31.20
2023-08-25T17:30:49.655Z,31.35
2023-08-25T17:33:16.126Z,31.25
2023-08-25T17:35:42.550Z,30.52
2023-08-25T17:38:08.952Z,30.63
2023-08-25T17:40:35.411Z,30.36
2023-08-25T17:43:01.824Z,30.70
2023-08-25T17:45:28.270Z,30.69
2023-08-25T17:47:54.754Z,30.68
2023-08-25T17:50:21.284Z,30.95
2023-08-25T17:52:47.767Z,30.96
2023-08-25T17:55:15.932Z,30.79
2023-08-25T17:57:43.523Z,30.90
2023-08-25T18:00:09.966Z,30.71
2023-08-25T18:02:36.470Z,30.34
2023-08-25T18:05:02.923Z,30.54
2023-08-25T18:07:29.442Z,30.49
2023-08-25T18:09:55.847Z,30.25
2023-08-25T18:12:22.327Z,30.23
2023-08-25T18:14:48.816Z,30.36
2023-08-25T18:17:15.238Z,30.40
2023-08-25T18:19:41.666Z,30.20
2023-08-25T18:22:08.150Z,30.41
2023-08-25T18:24:34.579Z,30.46
2023-08-25T18:27:01.013Z,30.45
2023-08-25T18:29:27.487Z,30.45
2023-08-25T18:31:53.989Z,30.61
2023-08-25T18:34:20.467Z,30.55
2023-08-25T18:36:46.938Z,30.49
2023-08-25T18:39:13.392Z,30.19
2023-08-25T18:41:39.816Z,30.27
2023-08-25T18:44:06.257Z,30.52
2023-08-25T18:46:32.688Z,29.94
2023-08-25T18:48:59.128Z,30.21
2023-08-25T18:51:27.049Z,30.06
2023-08-25T18:53:53.628Z,29.58
2023-08-25T18:56:20.123Z,29.59
2023-08-25T18:58:46.558Z,29.40
2023-08-25T19:01:13.113Z,29.56
2023-08-25T19:03:39.645Z,29.46
2023-08-25T19:06:06.177Z,29.08
2023-08-25T19:08:32.661Z,28.37
2023-08-25T19:10:59.167Z,28.39
2023-08-25T19:13:25.623Z,28.42
2023-08-25T19:15:52.110Z,28.67
2023-08-25T19:18:18.599Z,28.53
2023-08-25T19:20:45.086Z,28.64
2023-08-25T19:23:11.549Z,28.77
2023-08-25T19:25:38.018Z,28.84
2023-08-25T19:28:04.551Z,28.69
2023-08-25T19:30:31.005Z,28.70
2023-08-25T19:32:58.034Z,28.85
2023-08-25T19:35:24.811Z,29.13
2023-08-25T19:37:51.329Z,29.30
2023-08-25T19:40:17.904Z,29.43
2023-08-25T19:42:44.441Z,29.57
2023-08-25T19:45:10.911Z,29.72
2023-08-25T19:47:37.420Z,29.70
2023-08-25T19:50:03.931Z,29.75
2023-08-25T19:52:30.413Z,29.37
2023-08-25T19:54:56.924Z,28.80
2023-08-25T19:57:23.436Z,29.12
2023-08-25T19:59:49.914Z,29.16
2023-08-25T20:02:16.443Z,29.36
2023-08-25T20:04:42.972Z,29.48
2023-08-25T20:07:09.404Z,29.49
2023-08-25T20:09:35.921Z,29.29
2023-08-25T20:12:02.384Z,29.35
2023-08-25T20:14:28.813Z,29.06
2023-08-25T20:16:55.392Z,29.23
2023-08-25T20:19:21.843Z,28.68
2023-08-25T20:21:48.291Z,28.94
2023-08-25T20:24:14.783Z,28.94
2023-08-25T20:26:41.256Z,28.87
2023-08-25T20:29:07.704Z,28.76
2023-08-25T20:31:34.202Z,28.71
2023-08-25T20:34:00.629Z,28.74
2023-08-25T20:36:27.086Z,28.51
2023-08-25T20:38:53.727Z,28.00
2023-08-25T20:41:20.211Z,28.30
2023-08-25T20:43:46.633Z,28.37
2023-08-25T20:46:13.135Z,28.66
2023-08-25T20:48:39.658Z,28.75
2023-08-25T20:51:06.108Z,28.95
2023-08-25T20:53:32.560Z,29.14
2023-08-25T20:55:58.985Z,29.17
2023-08-25T20:58:25.459Z,29.08
2023-08-25T21:00:51.907Z,29.26
2023-08-25T21:03:18.592Z,29.34
2023-08-25T21:05:45.255Z,28.71
2023-08-25T21:08:11.705Z,28.51
2023-08-25T21:10:38.138Z,28.17
2023-08-25T21:13:04.651Z,28.43
2023-08-25T21:15:31.090Z,28.38
2023-08-25T21:17:57.603Z,28.63
2023-08-25T21:20:26.149Z,28.11
2023-08-25T21:22:54.172Z,27.74
2023-08-25T21:25:20.872Z,27.52
2023-08-25T21:27:47.360Z,26.90
2023-08-25T21:30:13.846Z,26.37
2023-08-25T21:32:40.360Z,26.54
2023-08-25T21:35:06.807Z,26.62
2023-08-25T21:37:33.270Z,26.86
2023-08-25T21:39:59.677Z,26.98
2023-08-25T21:42:26.118Z,26.90
2023-08-25T21:44:52.533Z,27.02
2023-08-25T21:47:19.003Z,26.74
2023-08-25T21:49:45.427Z,26.66
2023-08-25T21:52:11.883Z,26.06
2023-08-25T21:54:38.350Z,25.83
2023-08-25T21:57:04.867Z,26.00
2023-08-25T21:59:31.336Z,26.16
2023-08-25T22:01:57.795Z,25.68
2023-08-25T22:04:24.297Z,25.09
2023-08-25T22:06:50.807Z,25.00
2023-08-25T22:09:17.233Z,24.75
2023-08-25T22:11:43.657Z,24.46
2023-08-25T22:14:10.126Z,24.48
2023-08-25T22:16:36.552Z,24.39
2023-08-25T22:19:02.986Z,24.40
2023-08-25T22:21:29.437Z,24.36
2023-08-25T22:23:55.879Z,24.57
2023-08-25T22:26:22.356Z,24.82
2023-08-25T22:28:48.789Z,24.36
2023-08-25T22:31:15.263Z,24.23
2023-08-25T22:36:11.017Z,24.55
2023-08-25T22:38:37.438Z,24.36
2023-08-25T22:41:03.945Z,24.17
2023-08-25T22:43:30.368Z,24.38
2023-08-25T22:45:56.824Z,24.41
2023-08-25T22:48:23.273Z,24.29
2023-08-25T22:50:52.144Z,24.31
2023-08-25T22:53:18.584Z,24.33
2023-08-25T22:55:45.051Z,24.06
2023-08-25T22:58:11.526Z,24.30
2023-08-25T23:00:38.101Z,24.35
2023-08-25T23:03:04.692Z,24.34
2023-08-25T23:05:31.184Z,24.70
2023-08-25T23:07:57.775Z,24.50
2023-08-25T23:10:24.395Z,24.17
2023-08-25T23:12:50.839Z,24.53
2023-08-25T23:15:17.253Z,24.95
2023-08-25T23:17:43.732Z,24.90
2023-08-25T23:20:10.171Z,24.79
2023-08-25T23:22:36.624Z,24.98
2023-08-25T23:25:03.094Z,24.61
2023-08-25T23:27:29.520Z,24.22
2023-08-25T23:29:55.962Z,24.23
2023-08-25T23:32:22.420Z,24.13
2023-08-25T23:34:48.887Z,24.18
2023-08-25T23:37:15.327Z,24.07
2023-08-25T23:39:41.780Z,24.03
2023-08-25T23:42:08.207Z,23.89
2023-08-25T23:44:34.642Z,23.97
2023-08-25T23:47:01.057Z,23.94
2023-08-25T23:49:27.492Z,23.93
2023-08-25T23:51:53.924Z,23.90
2023-08-25T23:54:20.389Z,23.96
2023-08-25T23:56:46.826Z,24.04
2023-08-25T23:59:13.363Z,23.96
